sensor_id;sensor_type;location;lat;lon;timestamp;temperature;humidity
19809;DHT22;48538;32.784;-96.802;2023-06-01T00:00:01;31.20;99.90
19809;DHT22;48538;32.784;-96.802;2023-06-01T00:02:28;31.20;99.90
19809;DHT22;48538;32.784;-96.802;2023-06-01T00:04:54;31.30;99.90
19809;DHT22;48538;32.784;-96.802;2023-06-01T00:07:21;31.40;99.90
19809;DHT22;48538;32.784;-96.802;2023-06-01T00:09:49;31.40;99.90
19809;DHT22;48538;32.784;-96.802;2023-06-01T00:12:15;31.50;99.90
19809;DHT22;48538;32.784;-96.802;2023-06-01T00:14:42;31.60;99.90
19809;DHT22;48538;32.784;-96.802;2023-06-01T00:17:08;31.60;99.90
19809;DHT22;48538;32.784;-96.802;2023-06-01T00:19:35;31.60;99.90
19809;DHT22;48538;32.784;-96.802;2023-06-01T00:22:01;31.60;99.90
19809;DHT22;48538;32.784;-96.802;2023-06-01T00:24:28;31.50;99.90
19809;DHT22;48538;32.784;-96.802;2023-06-01T00:26:54;31.50;99.90
19809;DHT22;48538;32.784;-96.802;2023-06-01T00:29:20;31.40;99.90
19809;DHT22;48538;32.784;-96.802;2023-06-01T00:31:47;31.40;99.90
19809;DHT22;48538;32.784;-96.802;2023-06-01T00:34:13;31.30;99.90
19809;DHT22;48538;32.784;-96.802;2023-06-01T00:36:39;31.30;99.90
19809;DHT22;48538;32.784;-96.802;2023-06-01T00:39:06;31.20;99.90
19809;DHT22;48538;32.784;-96.802;2023-06-01T00:41:32;31.20;99.90
19809;DHT22;48538;32.784;-96.802;2023-06-01T00:43:59;31.20;99.90
19809;DHT22;48538;32.784;-96.802;2023-06-01T00:46:26;31.00;99.90
19809;DHT22;48538;32.784;-96.802;2023-06-01T00:48:53;31.00;99.90
19809;DHT22;48538;32.784;-96.802;2023-06-01T00:51:20;31.00;99.90
19809;DHT22;48538;32.784;-96.802;2023-06-01T00:53:46;30.90;99.90
19809;DHT22;48538;32.784;-96.802;2023-06-01T00:56:13;30.80;99.90
19809;DHT22;48538;32.784;-96.802;2023-06-01T00:58:40;30.80;99.90
19809;DHT22;48538;32.784;-96.802;2023-06-01T01:01:07;30.80;99.90
19809;DHT22;48538;32.784;-96.802;2023-06-01T01:03:35;30.70;99.90
19809;DHT22;48538;32.784;-96.802;2023-06-01T01:06:16;30.60;99.90
19809;DHT22;48538;32.784;-96.802;2023-06-01T01:09:10;30.40;99.90
19809;DHT22;48538;32.784;-96.802;2023-06-01T01:11:41;30.40;99.90
19809;DHT22;48538;32.784;-96.802;2023-06-01T01:17:42;30.10;99.90
19809;DHT22;48538;32.784;-96.802;2023-06-01T01:20:35;30.00;99.90
19809;DHT22;48538;32.784;-96.802;2023-06-01T01:23:17;29.80;99.90
19809;DHT22;48538;32.784;-96.802;2023-06-01T01:28:33;29.60;99.90
19809;DHT22;48538;32.784;-96.802;2023-06-01T01:31:02;29.40;99.90
19809;DHT22;48538;32.784;-96.802;2023-06-01T01:33:32;29.30;99.90
19809;DHT22;48538;32.784;-96.802;2023-06-01T01:35:59;29.20;99.90
19809;DHT22;48538;32.784;-96.802;2023-06-01T01:38:27;29.10;99.90
19809;DHT22;48538;32.784;-96.802;2023-06-01T01:40:53;29.00;99.90
19809;DHT22;48538;32.784;-96.802;2023-06-01T01:43:21;28.80;99.90
19809;DHT22;48538;32.784;-96.802;2023-06-01T01:45:55;28.70;99.90
19809;DHT22;48538;32.784;-96.802;2023-06-01T01:48:27;28.60;99.90
19809;DHT22;48538;32.784;-96.802;2023-06-01T01:51:03;28.50;99.90
19809;DHT22;48538;32.784;-96.802;2023-06-01T01:53:31;28.40;99.90
19809;DHT22;48538;32.784;-96.802;2023-06-01T01:55:59;28.30;99.90
19809;DHT22;48538;32.784;-96.802;2023-06-01T01:58:27;28.20;99.90
19809;DHT22;48538;32.784;-96.802;2023-06-01T02:00:54;28.20;99.90
19809;DHT22;48538;32.784;-96.802;2023-06-01T02:03:21;28.10;99.90
19809;DHT22;48538;32.784;-96.802;2023-06-01T02:05:48;28.00;99.90
19809;DHT22;48538;32.784;-96.802;2023-06-01T02:08:14;27.90;99.90
19809;DHT22;48538;32.784;-96.802;2023-06-01T02:10:41;27.90;99.90
19809;DHT22;48538;32.784;-96.802;2023-06-01T02:13:07;27.90;99.90
19809;DHT22;48538;32.784;-96.802;2023-06-01T02:15:33;27.80;99.90
19809;DHT22;48538;32.784;-96.802;2023-06-01T02:18:00;27.80;99.90
19809;DHT22;48538;32.784;-96.802;2023-06-01T02:20:28;27.80;99.90
19809;DHT22;48538;32.784;-96.802;2023-06-01T02:22:54;27.70;99.90
19809;DHT22;48538;32.784;-96.802;2023-06-01T02:25:20;27.70;99.90
19809;DHT22;48538;32.784;-96.802;2023-06-01T02:27:47;27.70;99.90
19809;DHT22;48538;32.784;-96.802;2023-06-01T02:30:13;27.70;99.90
19809;DHT22;48538;32.784;-96.802;2023-06-01T02:32:40;27.60;99.90
19809;DHT22;48538;32.784;-96.802;2023-06-01T02:35:10;27.60;99.90
19809;DHT22;48538;32.784;-96.802;2023-06-01T02:37:37;27.50;99.90
19809;DHT22;48538;32.784;-96.802;2023-06-01T02:40:03;27.60;99.90
19809;DHT22;48538;32.784;-96.802;2023-06-01T02:42:30;27.60;99.90
19809;DHT22;48538;32.784;-96.802;2023-06-01T02:44:56;27.50;99.90
19809;DHT22;48538;32.784;-96.802;2023-06-01T02:47:22;27.50;99.90
19809;DHT22;48538;32.784;-96.802;2023-06-01T02:49:49;27.40;99.90
19809;DHT22;48538;32.784;-96.802;2023-06-01T02:52:15;27.40;99.90
19809;DHT22;48538;32.784;-96.802;2023-06-01T02:54:42;27.40;99.90
19809;DHT22;48538;32.784;-96.802;2023-06-01T02:57:08;27.30;99.90
19809;DHT22;48538;32.784;-96.802;2023-06-01T02:59:34;27.30;99.90
19809;DHT22;48538;32.784;-96.802;2023-06-01T03:02:00;27.20;99.90
19809;DHT22;48538;32.784;-96.802;2023-06-01T03:04:27;27.20;99.90
19809;DHT22;48538;32.784;-96.802;2023-06-01T03:06:54;27.20;99.90
19809;DHT22;48538;32.784;-96.802;2023-06-01T03:09:23;27.20;99.90
19809;DHT22;48538;32.784;-96.802;2023-06-01T03:11:49;27.10;99.90
19809;DHT22;48538;32.784;-96.802;2023-06-01T03:14:15;27.10;99.90
19809;DHT22;48538;32.784;-96.802;2023-06-01T03:16:42;27.00;99.90
19809;DHT22;48538;32.784;-96.802;2023-06-01T03:19:08;27.00;99.90
19809;DHT22;48538;32.784;-96.802;2023-06-01T03:21:35;27.00;99.90
19809;DHT22;48538;32.784;-96.802;2023-06-01T03:24:02;26.90;99.90
19809;DHT22;48538;32.784;-96.802;2023-06-01T03:26:28;26.90;99.90
19809;DHT22;48538;32.784;-96.802;2023-06-01T03:28:54;26.90;99.90
19809;DHT22;48538;32.784;-96.802;2023-06-01T03:31:21;26.80;99.90
19809;DHT22;48538;32.784;-96.802;2023-06-01T03:33:47;26.80;99.90
19809;DHT22;48538;32.784;-96.802;2023-06-01T03:36:14;26.90;99.90
19809;DHT22;48538;32.784;-96.802;2023-06-01T03:38:40;26.90;99.90
19809;DHT22;48538;32.784;-96.802;2023-06-01T03:41:08;26.80;99.90
19809;DHT22;48538;32.784;-96.802;2023-06-01T03:43:35;26.80;99.90
19809;DHT22;48538;32.784;-96.802;2023-06-01T03:46:01;26.80;99.90
19809;DHT22;48538;32.784;-96.802;2023-06-01T03:48:27;26.70;99.90
19809;DHT22;48538;32.784;-96.802;2023-06-01T03:50:53;26.70;99.90
19809;DHT22;48538;32.784;-96.802;2023-06-01T03:53:20;26.70;99.90
19809;DHT22;48538;32.784;-96.802;2023-06-01T03:55:48;26.70;99.90
19809;DHT22;48538;32.784;-96.802;2023-06-01T03:58:14;26.70;99.90
19809;DHT22;48538;32.784;-96.802;2023-06-01T04:00:40;26.70;99.90
19809;DHT22;48538;32.784;-96.802;2023-06-01T04:03:07;26.60;99.90
19809;DHT22;48538;32.784;-96.802;2023-06-01T04:05:33;26.60;99.90
19809;DHT22;48538;32.784;-96.802;2023-06-01T04:08:02;26.60;99.90
19809;DHT22;48538;32.784;-96.802;2023-06-01T04:10:28;26.60;99.90
19809;DHT22;48538;32.784;-96.802;2023-06-01T04:12:54;26.60;99.90
19809;DHT22;48538;32.784;-96.802;2023-06-01T04:15:21;26.60;99.90
19809;DHT22;48538;32.784;-96.802;2023-06-01T04:17:48;26.60;99.90
19809;DHT22;48538;32.784;-96.802;2023-06-01T04:20:15;26.60;99.90
19809;DHT22;48538;32.784;-96.802;2023-06-01T04:22:43;26.60;99.90
19809;DHT22;48538;32.784;-96.802;2023-06-01T04:25:11;26.60;99.90
19809;DHT22;48538;32.784;-96.802;2023-06-01T04:27:45;26.60;99.90
19809;DHT22;48538;32.784;-96.802;2023-06-01T04:30:15;26.60;99.90
19809;DHT22;48538;32.784;-96.802;2023-06-01T04:32:42;26.60;99.90
19809;DHT22;48538;32.784;-96.802;2023-06-01T04:35:10;26.60;99.90
19809;DHT22;48538;32.784;-96.802;2023-06-01T04:37:37;26.60;99.90
19809;DHT22;48538;32.784;-96.802;2023-06-01T04:40:06;26.50;99.90
19809;DHT22;48538;32.784;-96.802;2023-06-01T04:42:39;26.50;99.90
19809;DHT22;48538;32.784;-96.802;2023-06-01T04:45:10;26.50;99.90
19809;DHT22;48538;32.784;-96.802;2023-06-01T04:47:37;26.50;99.90
19809;DHT22;48538;32.784;-96.802;2023-06-01T04:50:09;26.50;99.90
19809;DHT22;48538;32.784;-96.802;2023-06-01T04:52:37;26.50;99.90
19809;DHT22;48538;32.784;-96.802;2023-06-01T04:55:04;26.50;99.90
19809;DHT22;48538;32.784;-96.802;2023-06-01T04:57:31;26.40;99.90
19809;DHT22;48538;32.784;-96.802;2023-06-01T04:59:58;26.40;99.90
19809;DHT22;48538;32.784;-96.802;2023-06-01T05:02:25;26.40;99.90
19809;DHT22;48538;32.784;-96.802;2023-06-01T05:04:52;26.40;99.90
19809;DHT22;48538;32.784;-96.802;2023-06-01T05:07:18;26.40;99.90
19809;DHT22;48538;32.784;-96.802;2023-06-01T05:09:47;26.30;99.90
19809;DHT22;48538;32.784;-96.802;2023-06-01T05:12:14;26.30;99.90
19809;DHT22;48538;32.784;-96.802;2023-06-01T05:14:40;26.30;99.90
19809;DHT22;48538;32.784;-96.802;2023-06-01T05:17:07;26.30;99.90
19809;DHT22;48538;32.784;-96.802;2023-06-01T05:19:33;26.30;99.90
19809;DHT22;48538;32.784;-96.802;2023-06-01T05:21:59;26.30;99.90
19809;DHT22;48538;32.784;-96.802;2023-06-01T05:24:26;26.30;99.90
19809;DHT22;48538;32.784;-96.802;2023-06-01T05:26:52;26.20;99.90
19809;DHT22;48538;32.784;-96.802;2023-06-01T05:29:19;26.20;99.90
19809;DHT22;48538;32.784;-96.802;2023-06-01T05:31:46;26.20;99.90
19809;DHT22;48538;32.784;-96.802;2023-06-01T05:34:12;26.20;99.90
19809;DHT22;48538;32.784;-96.802;2023-06-01T05:36:39;26.10;99.90
19809;DHT22;48538;32.784;-96.802;2023-06-01T05:39:06;26.10;99.90
19809;DHT22;48538;32.784;-96.802;2023-06-01T05:41:33;26.10;99.90
19809;DHT22;48538;32.784;-96.802;2023-06-01T05:43:59;26.00;99.90
19809;DHT22;48538;32.784;-96.802;2023-06-01T05:46:26;26.00;99.90
19809;DHT22;48538;32.784;-96.802;2023-06-01T05:48:52;26.00;99.90
19809;DHT22;48538;32.784;-96.802;2023-06-01T05:51:18;25.90;99.90
19809;DHT22;48538;32.784;-96.802;2023-06-01T05:53:44;25.90;99.90
19809;DHT22;48538;32.784;-96.802;2023-06-01T05:56:11;25.90;99.90
19809;DHT22;48538;32.784;-96.802;2023-06-01T05:58:37;25.90;99.90
19809;DHT22;48538;32.784;-96.802;2023-06-01T06:01:03;25.80;99.90
19809;DHT22;48538;32.784;-96.802;2023-06-01T06:03:30;25.80;99.90
19809;DHT22;48538;32.784;-96.802;2023-06-01T06:05:57;25.80;99.90
19809;DHT22;48538;32.784;-96.802;2023-06-01T06:08:23;25.70;99.90
19809;DHT22;48538;32.784;-96.802;2023-06-01T06:10:49;25.70;99.90
19809;DHT22;48538;32.784;-96.802;2023-06-01T06:13:16;25.60;99.90
19809;DHT22;48538;32.784;-96.802;2023-06-01T06:15:42;25.60;99.90
19809;DHT22;48538;32.784;-96.802;2023-06-01T06:18:08;25.60;99.90
19809;DHT22;48538;32.784;-96.802;2023-06-01T06:20:35;25.60;99.90
19809;DHT22;48538;32.784;-96.802;2023-06-01T06:23:01;25.60;99.90
19809;DHT22;48538;32.784;-96.802;2023-06-01T06:25:27;25.60;99.90
19809;DHT22;48538;32.784;-96.802;2023-06-01T06:27:54;25.60;99.90
19809;DHT22;48538;32.784;-96.802;2023-06-01T06:30:21;25.50;99.90
19809;DHT22;48538;32.784;-96.802;2023-06-01T06:32:47;25.50;99.90
19809;DHT22;48538;32.784;-96.802;2023-06-01T06:35:13;25.40;99.90
19809;DHT22;48538;32.784;-96.802;2023-06-01T06:37:41;25.40;99.90
19809;DHT22;48538;32.784;-96.802;2023-06-01T06:40:08;25.30;99.90
19809;DHT22;48538;32.784;-96.802;2023-06-01T06:42:34;25.30;99.90
19809;DHT22;48538;32.784;-96.802;2023-06-01T06:45:01;25.30;99.90
19809;DHT22;48538;32.784;-96.802;2023-06-01T06:47:28;25.20;99.90
19809;DHT22;48538;32.784;-96.802;2023-06-01T06:49:54;25.20;99.90
19809;DHT22;48538;32.784;-96.802;2023-06-01T06:52:21;25.20;99.90
19809;DHT22;48538;32.784;-96.802;2023-06-01T06:54:47;25.10;99.90
19809;DHT22;48538;32.784;-96.802;2023-06-01T06:57:13;25.10;99.90
19809;DHT22;48538;32.784;-96.802;2023-06-01T06:59:39;25.10;99.90
19809;DHT22;48538;32.784;-96.802;2023-06-01T07:02:06;25.10;99.90
19809;DHT22;48538;32.784;-96.802;2023-06-01T07:04:32;25.00;99.90
19809;DHT22;48538;32.784;-96.802;2023-06-01T07:06:59;25.00;99.90
19809;DHT22;48538;32.784;-96.802;2023-06-01T07:09:29;25.00;99.90
19809;DHT22;48538;32.784;-96.802;2023-06-01T07:11:56;25.00;99.90
19809;DHT22;48538;32.784;-96.802;2023-06-01T07:14:22;24.90;99.90
19809;DHT22;48538;32.784;-96.802;2023-06-01T07:16:48;24.90;99.90
19809;DHT22;48538;32.784;-96.802;2023-06-01T07:19:14;24.90;99.90
19809;DHT22;48538;32.784;-96.802;2023-06-01T07:21:41;24.90;99.90
19809;DHT22;48538;32.784;-96.802;2023-06-01T07:24:08;24.80;99.90
19809;DHT22;48538;32.784;-96.802;2023-06-01T07:26:35;24.90;99.90
19809;DHT22;48538;32.784;-96.802;2023-06-01T07:29:01;24.80;99.90
19809;DHT22;48538;32.784;-96.802;2023-06-01T07:31:29;24.80;99.90
19809;DHT22;48538;32.784;-96.802;2023-06-01T07:33:55;24.80;99.90
19809;DHT22;48538;32.784;-96.802;2023-06-01T07:36:22;24.70;99.90
19809;DHT22;48538;32.784;-96.802;2023-06-01T07:38:52;24.70;99.90
19809;DHT22;48538;32.784;-96.802;2023-06-01T07:41:18;24.70;99.90
19809;DHT22;48538;32.784;-96.802;2023-06-01T07:43:45;24.70;99.90
19809;DHT22;48538;32.784;-96.802;2023-06-01T07:46:11;24.70;99.90
19809;DHT22;48538;32.784;-96.802;2023-06-01T07:48:37;24.70;99.90
19809;DHT22;48538;32.784;-96.802;2023-06-01T07:51:05;24.70;99.90
19809;DHT22;48538;32.784;-96.802;2023-06-01T07:53:33;24.70;99.90
19809;DHT22;48538;32.784;-96.802;2023-06-01T07:55:59;24.60;99.90
19809;DHT22;48538;32.784;-96.802;2023-06-01T07:58:25;24.60;99.90
19809;DHT22;48538;32.784;-96.802;2023-06-01T08:00:52;24.60;99.90
19809;DHT22;48538;32.784;-96.802;2023-06-01T08:03:18;24.60;99.90
19809;DHT22;48538;32.784;-96.802;2023-06-01T08:05:47;24.60;99.90
19809;DHT22;48538;32.784;-96.802;2023-06-01T08:08:13;24.60;99.90
19809;DHT22;48538;32.784;-96.802;2023-06-01T08:10:41;24.60;99.90
19809;DHT22;48538;32.784;-96.802;2023-06-01T08:13:07;24.50;99.90
19809;DHT22;48538;32.784;-96.802;2023-06-01T08:15:34;24.50;99.90
19809;DHT22;48538;32.784;-96.802;2023-06-01T08:18:04;24.50;99.90
19809;DHT22;48538;32.784;-96.802;2023-06-01T08:20:30;24.40;99.90
19809;DHT22;48538;32.784;-96.802;2023-06-01T08:22:56;24.40;99.90
19809;DHT22;48538;32.784;-96.802;2023-06-01T08:25:23;24.40;99.90
19809;DHT22;48538;32.784;-96.802;2023-06-01T08:27:49;24.30;99.90
19809;DHT22;48538;32.784;-96.802;2023-06-01T08:30:16;24.30;99.90
19809;DHT22;48538;32.784;-96.802;2023-06-01T08:32:42;24.30;99.90
19809;DHT22;48538;32.784;-96.802;2023-06-01T08:35:08;24.30;99.90
19809;DHT22;48538;32.784;-96.802;2023-06-01T08:37:35;24.20;99.90
19809;DHT22;48538;32.784;-96.802;2023-06-01T08:40:02;24.20;99.90
19809;DHT22;48538;32.784;-96.802;2023-06-01T08:45:08;24.20;99.90
19809;DHT22;48538;32.784;-96.802;2023-06-01T08:47:36;24.20;99.90
19809;DHT22;48538;32.784;-96.802;2023-06-01T08:50:05;24.20;99.90
19809;DHT22;48538;32.784;-96.802;2023-06-01T08:52:34;24.10;99.90
19809;DHT22;48538;32.784;-96.802;2023-06-01T08:55:02;24.10;99.90
19809;DHT22;48538;32.784;-96.802;2023-06-01T08:57:29;24.10;99.90
19809;DHT22;48538;32.784;-96.802;2023-06-01T08:59:57;24.00;99.90
19809;DHT22;48538;32.784;-96.802;2023-06-01T09:02:24;24.00;99.90
19809;DHT22;48538;32.784;-96.802;2023-06-01T09:04:51;24.00;99.90
19809;DHT22;48538;32.784;-96.802;2023-06-01T09:07:18;23.90;99.90
19809;DHT22;48538;32.784;-96.802;2023-06-01T09:09:44;24.00;99.90
19809;DHT22;48538;32.784;-96.802;2023-06-01T09:12:30;23.90;99.90
19809;DHT22;48538;32.784;-96.802;2023-06-01T09:15:14;23.90;99.90
19809;DHT22;48538;32.784;-96.802;2023-06-01T09:17:45;23.90;99.90
19809;DHT22;48538;32.784;-96.802;2023-06-01T09:20:23;23.80;99.90
19809;DHT22;48538;32.784;-96.802;2023-06-01T09:22:50;23.80;99.90
19809;DHT22;48538;32.784;-96.802;2023-06-01T09:25:16;23.80;99.90
19809;DHT22;48538;32.784;-96.802;2023-06-01T09:27:49;23.80;99.90
19809;DHT22;48538;32.784;-96.802;2023-06-01T09:30:18;23.80;99.90
19809;DHT22;48538;32.784;-96.802;2023-06-01T09:32:45;23.80;99.90
19809;DHT22;48538;32.784;-96.802;2023-06-01T09:35:37;23.80;99.90
19809;DHT22;48538;32.784;-96.802;2023-06-01T09:38:04;23.80;99.90
19809;DHT22;48538;32.784;-96.802;2023-06-01T09:40:33;23.70;99.90
19809;DHT22;48538;32.784;-96.802;2023-06-01T09:43:00;23.80;99.90
19809;DHT22;48538;32.784;-96.802;2023-06-01T09:45:30;23.80;99.90
19809;DHT22;48538;32.784;-96.802;2023-06-01T09:48:17;23.80;99.90
19809;DHT22;48538;32.784;-96.802;2023-06-01T09:50:44;23.80;99.90
19809;DHT22;48538;32.784;-96.802;2023-06-01T09:53:10;23.70;99.90
19809;DHT22;48538;32.784;-96.802;2023-06-01T09:56:01;23.70;99.90
19809;DHT22;48538;32.784;-96.802;2023-06-01T09:58:28;23.60;99.90
19809;DHT22;48538;32.784;-96.802;2023-06-01T10:00:55;23.60;99.90
19809;DHT22;48538;32.784;-96.802;2023-06-01T10:03:22;23.70;99.90
19809;DHT22;48538;32.784;-96.802;2023-06-01T10:05:49;23.70;99.90
19809;DHT22;48538;32.784;-96.802;2023-06-01T10:08:17;23.70;99.90
19809;DHT22;48538;32.784;-96.802;2023-06-01T10:10:46;23.70;99.90
19809;DHT22;48538;32.784;-96.802;2023-06-01T10:13:13;23.60;99.90
19809;DHT22;48538;32.784;-96.802;2023-06-01T10:15:40;23.60;99.90
19809;DHT22;48538;32.784;-96.802;2023-06-01T10:18:07;23.60;99.90
19809;DHT22;48538;32.784;-96.802;2023-06-01T10:20:34;23.60;99.90
19809;DHT22;48538;32.784;-96.802;2023-06-01T10:23:01;23.60;99.90
19809;DHT22;48538;32.784;-96.802;2023-06-01T10:25:41;23.50;99.90
19809;DHT22;48538;32.784;-96.802;2023-06-01T10:28:11;23.50;99.90
19809;DHT22;48538;32.784;-96.802;2023-06-01T10:30:38;23.50;99.90
19809;DHT22;48538;32.784;-96.802;2023-06-01T10:33:05;23.50;99.90
19809;DHT22;48538;32.784;-96.802;2023-06-01T10:40:42;23.50;99.90
19809;DHT22;48538;32.784;-96.802;2023-06-01T10:48:57;23.50;99.90
19809;DHT22;48538;32.784;-96.802;2023-06-01T10:51:23;23.50;99.90
19809;DHT22;48538;32.784;-96.802;2023-06-01T10:53:51;23.50;99.90
19809;DHT22;48538;32.784;-96.802;2023-06-01T10:56:24;23.50;99.90
19809;DHT22;48538;32.784;-96.802;2023-06-01T11:01:41;23.50;99.90
19809;DHT22;48538;32.784;-96.802;2023-06-01T11:04:08;23.50;99.90
19809;DHT22;48538;32.784;-96.802;2023-06-01T11:06:36;23.40;99.90
19809;DHT22;48538;32.784;-96.802;2023-06-01T11:09:05;23.40;99.90
19809;DHT22;48538;32.784;-96.802;2023-06-01T11:14:27;23.40;99.90
19809;DHT22;48538;32.784;-96.802;2023-06-01T11:17:25;23.40;99.90
19809;DHT22;48538;32.784;-96.802;2023-06-01T11:19:58;23.50;99.90
19809;DHT22;48538;32.784;-96.802;2023-06-01T11:22:24;23.50;99.90
19809;DHT22;48538;32.784;-96.802;2023-06-01T11:24:52;23.50;99.90
19809;DHT22;48538;32.784;-96.802;2023-06-01T11:27:21;23.50;99.90
19809;DHT22;48538;32.784;-96.802;2023-06-01T11:29:49;23.50;99.90
19809;DHT22;48538;32.784;-96.802;2023-06-01T11:32:16;23.50;99.90
19809;DHT22;48538;32.784;-96.802;2023-06-01T11:34:48;23.50;99.90
19809;DHT22;48538;32.784;-96.802;2023-06-01T11:37:14;23.50;99.90
19809;DHT22;48538;32.784;-96.802;2023-06-01T11:39:41;23.50;99.90
19809;DHT22;48538;32.784;-96.802;2023-06-01T11:42:18;23.50;99.90
19809;DHT22;48538;32.784;-96.802;2023-06-01T11:44:55;23.50;99.90
19809;DHT22;48538;32.784;-96.802;2023-06-01T11:47:22;23.50;99.90
19809;DHT22;48538;32.784;-96.802;2023-06-01T11:49:49;23.50;99.90
19809;DHT22;48538;32.784;-96.802;2023-06-01T11:52:17;23.50;99.90
19809;DHT22;48538;32.784;-96.802;2023-06-01T11:54:44;23.50;99.90
19809;DHT22;48538;32.784;-96.802;2023-06-01T11:57:11;23.50;99.90
19809;DHT22;48538;32.784;-96.802;2023-06-01T11:59:38;23.50;99.90
19809;DHT22;48538;32.784;-96.802;2023-06-01T12:02:26;23.60;99.90
19809;DHT22;48538;32.784;-96.802;2023-06-01T12:05:03;23.60;99.90
19809;DHT22;48538;32.784;-96.802;2023-06-01T12:07:47;23.60;99.90
19809;DHT22;48538;32.784;-96.802;2023-06-01T12:10:16;23.70;99.90
19809;DHT22;48538;32.784;-96.802;2023-06-01T12:12:43;23.80;99.90
19809;DHT22;48538;32.784;-96.802;2023-06-01T12:15:15;23.80;99.90
19809;DHT22;48538;32.784;-96.802;2023-06-01T12:17:49;23.80;99.90
19809;DHT22;48538;32.784;-96.802;2023-06-01T12:20:32;23.90;99.90
19809;DHT22;48538;32.784;-96.802;2023-06-01T12:23:23;23.90;99.90
19809;DHT22;48538;32.784;-96.802;2023-06-01T12:25:53;24.00;99.90
19809;DHT22;48538;32.784;-96.802;2023-06-01T12:28:20;24.10;99.90
19809;DHT22;48538;32.784;-96.802;2023-06-01T12:30:48;24.20;99.90
19809;DHT22;48538;32.784;-96.802;2023-06-01T12:33:34;24.30;99.90
19809;DHT22;48538;32.784;-96.802;2023-06-01T12:36:01;24.30;99.90
19809;DHT22;48538;32.784;-96.802;2023-06-01T12:38:27;24.40;99.90
19809;DHT22;48538;32.784;-96.802;2023-06-01T12:41:10;24.50;99.90
19809;DHT22;48538;32.784;-96.802;2023-06-01T12:43:38;24.60;99.90
19809;DHT22;48538;32.784;-96.802;2023-06-01T12:46:05;24.70;99.90
19809;DHT22;48538;32.784;-96.802;2023-06-01T12:48:33;24.70;99.90
19809;DHT22;48538;32.784;-96.802;2023-06-01T12:50:59;24.90;99.90
19809;DHT22;48538;32.784;-96.802;2023-06-01T12:53:27;25.00;99.90
19809;DHT22;48538;32.784;-96.802;2023-06-01T12:55:53;25.10;99.90
19809;DHT22;48538;32.784;-96.802;2023-06-01T12:58:19;25.20;99.90
19809;DHT22;48538;32.784;-96.802;2023-06-01T13:00:46;25.30;99.90
19809;DHT22;48538;32.784;-96.802;2023-06-01T13:03:13;25.30;99.90
19809;DHT22;48538;32.784;-96.802;2023-06-01T13:05:43;25.40;99.90
19809;DHT22;48538;32.784;-96.802;2023-06-01T13:08:13;25.40;99.90
19809;DHT22;48538;32.784;-96.802;2023-06-01T13:10:39;25.50;99.90
19809;DHT22;48538;32.784;-96.802;2023-06-01T13:13:07;25.50;99.90
19809;DHT22;48538;32.784;-96.802;2023-06-01T13:15:34;25.50;99.90
19809;DHT22;48538;32.784;-96.802;2023-06-01T13:18:01;25.50;99.90
19809;DHT22;48538;32.784;-96.802;2023-06-01T13:20:28;25.50;99.90
19809;DHT22;48538;32.784;-96.802;2023-06-01T13:22:55;25.50;99.90
19809;DHT22;48538;32.784;-96.802;2023-06-01T13:25:21;25.50;99.90
19809;DHT22;48538;32.784;-96.802;2023-06-01T13:27:47;25.50;99.90
19809;DHT22;48538;32.784;-96.802;2023-06-01T13:30:14;25.50;99.90
19809;DHT22;48538;32.784;-96.802;2023-06-01T13:32:40;25.50;99.90
19809;DHT22;48538;32.784;-96.802;2023-06-01T13:35:07;25.50;99.90
19809;DHT22;48538;32.784;-96.802;2023-06-01T13:37:34;25.60;99.90
19809;DHT22;48538;32.784;-96.802;2023-06-01T13:40:02;25.60;99.90
19809;DHT22;48538;32.784;-96.802;2023-06-01T13:42:29;25.70;99.90
19809;DHT22;48538;32.784;-96.802;2023-06-01T13:44:56;25.80;99.90
19809;DHT22;48538;32.784;-96.802;2023-06-01T13:47:22;25.80;99.90
19809;DHT22;48538;32.784;-96.802;2023-06-01T13:49:49;25.80;99.90
19809;DHT22;48538;32.784;-96.802;2023-06-01T13:52:15;25.90;99.90
19809;DHT22;48538;32.784;-96.802;2023-06-01T13:54:42;25.90;99.90
19809;DHT22;48538;32.784;-96.802;2023-06-01T13:57:09;25.90;99.90
19809;DHT22;48538;32.784;-96.802;2023-06-01T13:59:35;25.90;99.90
19809;DHT22;48538;32.784;-96.802;2023-06-01T14:02:03;25.90;99.90
19809;DHT22;48538;32.784;-96.802;2023-06-01T14:04:30;25.90;99.90
19809;DHT22;48538;32.784;-96.802;2023-06-01T14:06:57;25.90;99.90
19809;DHT22;48538;32.784;-96.802;2023-06-01T14:09:23;25.90;99.90
19809;DHT22;48538;32.784;-96.802;2023-06-01T14:11:50;26.00;99.90
19809;DHT22;48538;32.784;-96.802;2023-06-01T14:14:16;26.00;99.90
19809;DHT22;48538;32.784;-96.802;2023-06-01T14:16:43;25.90;99.90
19809;DHT22;48538;32.784;-96.802;2023-06-01T14:19:09;26.00;99.90
19809;DHT22;48538;32.784;-96.802;2023-06-01T14:21:35;26.00;99.90
19809;DHT22;48538;32.784;-96.802;2023-06-01T14:24:02;26.00;99.90
19809;DHT22;48538;32.784;-96.802;2023-06-01T14:26:29;26.10;99.90
19809;DHT22;48538;32.784;-96.802;2023-06-01T14:28:55;26.10;99.90
19809;DHT22;48538;32.784;-96.802;2023-06-01T14:31:21;26.20;99.90
19809;DHT22;48538;32.784;-96.802;2023-06-01T14:33:48;26.20;99.90
19809;DHT22;48538;32.784;-96.802;2023-06-01T14:36:14;26.20;99.90
19809;DHT22;48538;32.784;-96.802;2023-06-01T14:38:41;26.20;99.90
19809;DHT22;48538;32.784;-96.802;2023-06-01T14:41:07;26.30;99.90
19809;DHT22;48538;32.784;-96.802;2023-06-01T14:43:34;26.40;99.90
19809;DHT22;48538;32.784;-96.802;2023-06-01T14:46:00;26.40;99.90
19809;DHT22;48538;32.784;-96.802;2023-06-01T14:48:26;26.50;99.90
19809;DHT22;48538;32.784;-96.802;2023-06-01T14:50:53;26.50;99.90
19809;DHT22;48538;32.784;-96.802;2023-06-01T14:53:19;26.60;99.90
19809;DHT22;48538;32.784;-96.802;2023-06-01T14:55:45;26.60;99.90
19809;DHT22;48538;32.784;-96.802;2023-06-01T14:58:11;26.70;99.90
19809;DHT22;48538;32.784;-96.802;2023-06-01T15:00:38;26.70;99.90
19809;DHT22;48538;32.784;-96.802;2023-06-01T15:03:04;26.80;99.90
19809;DHT22;48538;32.784;-96.802;2023-06-01T15:05:30;26.90;99.90
19809;DHT22;48538;32.784;-96.802;2023-06-01T15:07:57;27.00;99.90
19809;DHT22;48538;32.784;-96.802;2023-06-01T15:10:23;27.00;99.90
19809;DHT22;48538;32.784;-96.802;2023-06-01T15:12:50;27.00;99.90
19809;DHT22;48538;32.784;-96.802;2023-06-01T15:15:17;27.10;99.90
19809;DHT22;48538;32.784;-96.802;2023-06-01T15:17:44;27.10;99.90
19809;DHT22;48538;32.784;-96.802;2023-06-01T15:20:11;27.20;99.90
19809;DHT22;48538;32.784;-96.802;2023-06-01T15:22:37;27.20;99.90
19809;DHT22;48538;32.784;-96.802;2023-06-01T15:25:04;27.30;99.90
19809;DHT22;48538;32.784;-96.802;2023-06-01T15:27:30;27.30;99.90
19809;DHT22;48538;32.784;-96.802;2023-06-01T15:29:56;27.30;99.90
19809;DHT22;48538;32.784;-96.802;2023-06-01T15:32:23;27.40;99.90